Plumsteadville, Pennsylvania
Current Conditions -  °F | °C
As of 1:54 PM on Friday 21 Nov 2014 (Local Time) from KDYL Reporting Station
Clear Clear  
Wind Chill: 25°   Ceiling: Unl
Heat Index: 34°   Visibility: 10mi
Dew Point:   Wind: 13mph
Humidity: 35%   Direction: 320°NW
Pressure: 30.35"   Gusts: 23mph
Location:  40.39°N, 75.15°W
Report Text: KDYL 211854Z AUTO 32011G20KT 10SM CLR 01/M13 A3035 RMK AO2 SLP286 T00111128
Loading
Personal Weather Stations






























Interactive Weather Map New forecast layout! Learn more

10-Day Weather Forecast

Advertisements
Track Severe Weather on mobile